sensor_id;sensor_type;location;lat;lon;timestamp;P1;durP1;ratioP1;P2;durP2;ratioP2
13057;SDS011;6595;49.578;11.012;2022-10-04T00:00:24;8.2;;;5.3;;
13057;SDS011;6595;49.578;11.012;2022-10-04T00:02:25;8.2;;;5.3;;
13057;SDS011;6595;49.578;11.012;2022-10-04T00:04:24;6.6;;;5.2;;
13057;SDS011;6595;49.578;11.012;2022-10-04T00:06:23;7.1;;;5.1;;
13057;SDS011;6595;49.578;11.012;2022-10-04T00:08:25;6.6;;;5.2;;
13057;SDS011;6595;49.578;11.012;2022-10-04T00:10:25;5.9;;;5.3;;
13057;SDS011;6595;49.578;11.012;2022-10-04T00:12:24;11.1;;;5.7;;
13057;SDS011;6595;49.578;11.012;2022-10-04T00:14:24;7.0;;;5.4;;
13057;SDS011;6595;49.578;11.012;2022-10-04T00:16:26;7.0;;;5.4;;
13057;SDS011;6595;49.578;11.012;2022-10-04T00:18:27;10.7;;;6.0;;
13057;SDS011;6595;49.578;11.012;2022-10-04T00:22:25;6.3;;;5.3;;
13057;SDS011;6595;49.578;11.012;2022-10-04T00:24:24;6.3;;;5.3;;
13057;SDS011;6595;49.578;11.012;2022-10-04T00:28:26;6.7;;;5.6;;
13057;SDS011;6595;49.578;11.012;2022-10-04T00:30:23;6.7;;;5.6;;
13057;SDS011;6595;49.578;11.012;2022-10-04T00:32:25;7.1;;;5.4;;
13057;SDS011;6595;49.578;11.012;2022-10-04T00:38:24;5.6;;;5.0;;
13057;SDS011;6595;49.578;11.012;2022-10-04T00:40:24;6.5;;;5.2;;
13057;SDS011;6595;49.578;11.012;2022-10-04T00:44:26;6.0;;;5.2;;
13057;SDS011;6595;49.578;11.012;2022-10-04T00:46:23;6.0;;;5.2;;
13057;SDS011;6595;49.578;11.012;2022-10-04T00:48:28;8.4;;;5.0;;
13057;SDS011;6595;49.578;11.012;2022-10-04T00:50:25;6.8;;;5.2;;
13057;SDS011;6595;49.578;11.012;2022-10-04T00:52:24;7.1;;;5.1;;
13057;SDS011;6595;49.578;11.012;2022-10-04T00:54:25;7.1;;;5.1;;
13057;SDS011;6595;49.578;11.012;2022-10-04T00:56:25;8.0;;;5.1;;
13057;SDS011;6595;49.578;11.012;2022-10-04T00:58:23;7.4;;;5.1;;
13057;SDS011;6595;49.578;11.012;2022-10-04T01:00:23;6.4;;;5.5;;
13057;SDS011;6595;49.578;11.012;2022-10-04T01:02:25;6.4;;;5.5;;
13057;SDS011;6595;49.578;11.012;2022-10-04T01:04:26;7.3;;;5.5;;
13057;SDS011;6595;49.578;11.012;2022-10-04T01:06:24;8.0;;;5.5;;
13057;SDS011;6595;49.578;11.012;2022-10-04T01:08:24;5.6;;;5.1;;
13057;SDS011;6595;49.578;11.012;2022-10-04T01:10:24;6.3;;;5.6;;
13057;SDS011;6595;49.578;11.012;2022-10-04T01:12:32;6.3;;;5.6;;
13057;SDS011;6595;49.578;11.012;2022-10-04T01:14:28;6.9;;;5.6;;
13057;SDS011;6595;49.578;11.012;2022-10-04T01:16:24;6.0;;;5.1;;
13057;SDS011;6595;49.578;11.012;2022-10-04T01:18:28;6.0;;;5.1;;
13057;SDS011;6595;49.578;11.012;2022-10-04T01:20:28;7.2;;;5.6;;
13057;SDS011;6595;49.578;11.012;2022-10-04T01:22:30;7.2;;;5.6;;
13057;SDS011;6595;49.578;11.012;2022-10-04T01:24:23;6.2;;;5.6;;
13057;SDS011;6595;49.578;11.012;2022-10-04T01:28:23;5.7;;;5.1;;
13057;SDS011;6595;49.578;11.012;2022-10-04T01:30:24;5.9;;;5.3;;
13057;SDS011;6595;49.578;11.012;2022-10-04T01:32:24;5.9;;;5.3;;
13057;SDS011;6595;49.578;11.012;2022-10-04T01:34:24;6.6;;;5.4;;
13057;SDS011;6595;49.578;11.012;2022-10-04T01:36:24;5.9;;;5.3;;
13057;SDS011;6595;49.578;11.012;2022-10-04T01:38:24;8.0;;;5.4;;
13057;SDS011;6595;49.578;11.012;2022-10-04T01:40:23;8.1;;;5.2;;
13057;SDS011;6595;49.578;11.012;2022-10-04T01:42:25;8.1;;;5.2;;
13057;SDS011;6595;49.578;11.012;2022-10-04T01:44:25;7.5;;;5.2;;
13057;SDS011;6595;49.578;11.012;2022-10-04T01:46:24;5.9;;;5.0;;
13057;SDS011;6595;49.578;11.012;2022-10-04T01:48:24;7.0;;;5.3;;
13057;SDS011;6595;49.578;11.012;2022-10-04T01:50:25;6.0;;;5.4;;
13057;SDS011;6595;49.578;11.012;2022-10-04T01:52:25;6.0;;;5.4;;
13057;SDS011;6595;49.578;11.012;2022-10-04T01:54:28;10.9;;;6.0;;
13057;SDS011;6595;49.578;11.012;2022-10-04T01:56:24;6.2;;;5.6;;
13057;SDS011;6595;49.578;11.012;2022-10-04T01:58:24;6.1;;;5.5;;
13057;SDS011;6595;49.578;11.012;2022-10-04T02:00:23;6.1;;;5.5;;
13057;SDS011;6595;49.578;11.012;2022-10-04T02:02:24;9.4;;;6.4;;
13057;SDS011;6595;49.578;11.012;2022-10-04T02:04:26;7.2;;;4.9;;
13057;SDS011;6595;49.578;11.012;2022-10-04T02:06:23;7.9;;;5.8;;
13057;SDS011;6595;49.578;11.012;2022-10-04T02:08:25;9.8;;;5.6;;
13057;SDS011;6595;49.578;11.012;2022-10-04T02:10:23;9.8;;;5.6;;
13057;SDS011;6595;49.578;11.012;2022-10-04T02:12:23;5.9;;;5.2;;
13057;SDS011;6595;49.578;11.012;2022-10-04T02:14:24;7.1;;;5.1;;
13057;SDS011;6595;49.578;11.012;2022-10-04T02:16:23;5.7;;;5.2;;
13057;SDS011;6595;49.578;11.012;2022-10-04T02:18:23;5.7;;;4.7;;
13057;SDS011;6595;49.578;11.012;2022-10-04T02:20:24;5.7;;;4.7;;
13057;SDS011;6595;49.578;11.012;2022-10-04T02:22:23;6.5;;;5.0;;
13057;SDS011;6595;49.578;11.012;2022-10-04T02:24:23;6.9;;;5.2;;
13057;SDS011;6595;49.578;11.012;2022-10-04T02:26:23;6.2;;;5.1;;
13057;SDS011;6595;49.578;11.012;2022-10-04T02:28:23;6.2;;;5.1;;
13057;SDS011;6595;49.578;11.012;2022-10-04T02:30:23;10.8;;;5.5;;
13057;SDS011;6595;49.578;11.012;2022-10-04T02:32:23;7.5;;;5.3;;
13057;SDS011;6595;49.578;11.012;2022-10-04T02:34:23;6.1;;;5.0;;
13057;SDS011;6595;49.578;11.012;2022-10-04T02:36:24;9.9;;;5.7;;
13057;SDS011;6595;49.578;11.012;2022-10-04T02:38:24;9.9;;;5.7;;
13057;SDS011;6595;49.578;11.012;2022-10-04T02:40:25;5.9;;;5.3;;
13057;SDS011;6595;49.578;11.012;2022-10-04T02:42:26;5.6;;;5.1;;
13057;SDS011;6595;49.578;11.012;2022-10-04T02:44:24;7.7;;;5.6;;
13057;SDS011;6595;49.578;11.012;2022-10-04T02:46:24;9.7;;;5.8;;
13057;SDS011;6595;49.578;11.012;2022-10-04T02:48:33;9.7;;;5.8;;
13057;SDS011;6595;49.578;11.012;2022-10-04T02:50:27;7.6;;;5.4;;
13057;SDS011;6595;49.578;11.012;2022-10-04T02:52:24;11.0;;;5.6;;
13057;SDS011;6595;49.578;11.012;2022-10-04T02:54:25;8.9;;;5.9;;
13057;SDS011;6595;49.578;11.012;2022-10-04T02:56:23;8.9;;;5.9;;
13057;SDS011;6595;49.578;11.012;2022-10-04T02:58:24;8.6;;;5.9;;
13057;SDS011;6595;49.578;11.012;2022-10-04T03:00:24;7.9;;;5.9;;
13057;SDS011;6595;49.578;11.012;2022-10-04T03:02:25;9.6;;;6.4;;
13057;SDS011;6595;49.578;11.012;2022-10-04T03:04:24;8.1;;;6.0;;
13057;SDS011;6595;49.578;11.012;2022-10-04T03:06:26;8.1;;;6.0;;
13057;SDS011;6595;49.578;11.012;2022-10-04T03:08:24;9.9;;;5.6;;
13057;SDS011;6595;49.578;11.012;2022-10-04T03:10:23;9.9;;;5.6;;
13057;SDS011;6595;49.578;11.012;2022-10-04T03:12:23;6.3;;;5.3;;
13057;SDS011;6595;49.578;11.012;2022-10-04T03:14:24;7.5;;;5.4;;
13057;SDS011;6595;49.578;11.012;2022-10-04T03:16:23;7.5;;;5.4;;
13057;SDS011;6595;49.578;11.012;2022-10-04T03:18:23;5.8;;;5.1;;
13057;SDS011;6595;49.578;11.012;2022-10-04T03:20:23;7.0;;;5.4;;
13057;SDS011;6595;49.578;11.012;2022-10-04T03:22:23;7.6;;;5.5;;
13057;SDS011;6595;49.578;11.012;2022-10-04T03:24:24;7.6;;;5.5;;
13057;SDS011;6595;49.578;11.012;2022-10-04T03:26:26;7.7;;;5.1;;
13057;SDS011;6595;49.578;11.012;2022-10-04T03:28:23;7.7;;;5.3;;
13057;SDS011;6595;49.578;11.012;2022-10-04T03:30:24;7.7;;;5.3;;
13057;SDS011;6595;49.578;11.012;2022-10-04T03:32:23;7.8;;;5.4;;
13057;SDS011;6595;49.578;11.012;2022-10-04T03:34:25;7.8;;;5.4;;
13057;SDS011;6595;49.578;11.012;2022-10-04T03:36:24;8.0;;;5.4;;
13057;SDS011;6595;49.578;11.012;2022-10-04T03:40:24;8.2;;;5.9;;
13057;SDS011;6595;49.578;11.012;2022-10-04T03:42:24;6.4;;;5.5;;
13057;SDS011;6595;49.578;11.012;2022-10-04T03:44:23;9.3;;;5.5;;
13057;SDS011;6595;49.578;11.012;2022-10-04T03:46:23;9.3;;;5.5;;
13057;SDS011;6595;49.578;11.012;2022-10-04T03:48:27;9.2;;;6.2;;
13057;SDS011;6595;49.578;11.012;2022-10-04T03:50:24;7.9;;;5.8;;
13057;SDS011;6595;49.578;11.012;2022-10-04T03:52:24;9.0;;;6.3;;
13057;SDS011;6595;49.578;11.012;2022-10-04T03:54:23;7.6;;;6.0;;
13057;SDS011;6595;49.578;11.012;2022-10-04T03:56:25;7.6;;;6.0;;
13057;SDS011;6595;49.578;11.012;2022-10-04T03:58:24;7.7;;;6.2;;
13057;SDS011;6595;49.578;11.012;2022-10-04T04:00:24;7.5;;;5.7;;
13057;SDS011;6595;49.578;11.012;2022-10-04T04:02:26;6.7;;;5.8;;
13057;SDS011;6595;49.578;11.012;2022-10-04T04:04:24;7.0;;;5.5;;
13057;SDS011;6595;49.578;11.012;2022-10-04T04:06:24;7.0;;;5.5;;
13057;SDS011;6595;49.578;11.012;2022-10-04T04:08:25;7.6;;;5.6;;
13057;SDS011;6595;49.578;11.012;2022-10-04T04:10:25;7.9;;;6.1;;
13057;SDS011;6595;49.578;11.012;2022-10-04T04:12:24;7.0;;;6.0;;
13057;SDS011;6595;49.578;11.012;2022-10-04T04:14:24;7.8;;;5.8;;
13057;SDS011;6595;49.578;11.012;2022-10-04T04:16:23;7.8;;;5.8;;
13057;SDS011;6595;49.578;11.012;2022-10-04T04:18:24;7.4;;;5.8;;
13057;SDS011;6595;49.578;11.012;2022-10-04T04:20:24;6.4;;;5.4;;
13057;SDS011;6595;49.578;11.012;2022-10-04T04:22:23;9.2;;;5.6;;
13057;SDS011;6595;49.578;11.012;2022-10-04T04:24:25;9.2;;;5.6;;
13057;SDS011;6595;49.578;11.012;2022-10-04T04:26:25;7.0;;;5.6;;
13057;SDS011;6595;49.578;11.012;2022-10-04T04:28:25;7.0;;;5.6;;
13057;SDS011;6595;49.578;11.012;2022-10-04T04:30:23;9.5;;;6.3;;
13057;SDS011;6595;49.578;11.012;2022-10-04T04:32:24;9.5;;;6.3;;
13057;SDS011;6595;49.578;11.012;2022-10-04T04:34:24;12.1;;;6.8;;
13057;SDS011;6595;49.578;11.012;2022-10-04T04:36:23;11.6;;;6.8;;
13057;SDS011;6595;49.578;11.012;2022-10-04T04:38:24;12.7;;;7.2;;
13057;SDS011;6595;49.578;11.012;2022-10-04T04:40:23;10.4;;;6.9;;
13057;SDS011;6595;49.578;11.012;2022-10-04T04:42:24;10.9;;;6.8;;
13057;SDS011;6595;49.578;11.012;2022-10-04T04:44:24;10.9;;;6.8;;
13057;SDS011;6595;49.578;11.012;2022-10-04T04:46:23;9.1;;;6.7;;
13057;SDS011;6595;49.578;11.012;2022-10-04T04:48:23;11.7;;;6.7;;
13057;SDS011;6595;49.578;11.012;2022-10-04T04:50:24;11.1;;;7.1;;
13057;SDS011;6595;49.578;11.012;2022-10-04T04:52:24;9.3;;;6.5;;
13057;SDS011;6595;49.578;11.012;2022-10-04T04:54:23;9.3;;;6.5;;
13057;SDS011;6595;49.578;11.012;2022-10-04T04:56:24;9.0;;;6.4;;
13057;SDS011;6595;49.578;11.012;2022-10-04T04:58:24;7.3;;;6.0;;
13057;SDS011;6595;49.578;11.012;2022-10-04T05:00:26;8.4;;;6.2;;
13057;SDS011;6595;49.578;11.012;2022-10-04T05:02:25;8.4;;;6.2;;
13057;SDS011;6595;49.578;11.012;2022-10-04T05:04:24;7.7;;;6.2;;
13057;SDS011;6595;49.578;11.012;2022-10-04T05:06:23;8.9;;;6.2;;
13057;SDS011;6595;49.578;11.012;2022-10-04T05:08:23;7.0;;;6.3;;
13057;SDS011;6595;49.578;11.012;2022-10-04T05:10:27;7.4;;;6.0;;
13057;SDS011;6595;49.578;11.012;2022-10-04T05:12:24;7.4;;;6.0;;
13057;SDS011;6595;49.578;11.012;2022-10-04T05:14:23;6.8;;;5.8;;
13057;SDS011;6595;49.578;11.012;2022-10-04T05:16:24;6.9;;;5.7;;
13057;SDS011;6595;49.578;11.012;2022-10-04T05:18:26;8.0;;;6.1;;
13057;SDS011;6595;49.578;11.012;2022-10-04T05:20:23;6.2;;;5.4;;
13057;SDS011;6595;49.578;11.012;2022-10-04T05:22:23;6.2;;;5.4;;
13057;SDS011;6595;49.578;11.012;2022-10-04T05:24:24;8.8;;;5.9;;
13057;SDS011;6595;49.578;11.012;2022-10-04T05:26:25;7.1;;;5.7;;
13057;SDS011;6595;49.578;11.012;2022-10-04T05:28:24;7.8;;;6.5;;
13057;SDS011;6595;49.578;11.012;2022-10-04T05:30:29;10.0;;;6.6;;
13057;SDS011;6595;49.578;11.012;2022-10-04T05:32:25;10.0;;;6.6;;
13057;SDS011;6595;49.578;11.012;2022-10-04T05:34:24;6.9;;;6.2;;
13057;SDS011;6595;49.578;11.012;2022-10-04T05:36:30;7.8;;;6.1;;
13057;SDS011;6595;49.578;11.012;2022-10-04T05:38:26;8.3;;;6.4;;
13057;SDS011;6595;49.578;11.012;2022-10-04T05:40:27;7.5;;;6.1;;
13057;SDS011;6595;49.578;11.012;2022-10-04T05:42:24;7.5;;;6.1;;
13057;SDS011;6595;49.578;11.012;2022-10-04T05:44:25;7.7;;;6.4;;
13057;SDS011;6595;49.578;11.012;2022-10-04T05:46:24;8.0;;;6.1;;
13057;SDS011;6595;49.578;11.012;2022-10-04T05:48:23;7.1;;;6.0;;
13057;SDS011;6595;49.578;11.012;2022-10-04T05:50:27;7.1;;;6.0;;
13057;SDS011;6595;49.578;11.012;2022-10-04T05:52:25;8.3;;;6.2;;
13057;SDS011;6595;49.578;11.012;2022-10-04T05:54:24;9.8;;;6.8;;
13057;SDS011;6595;49.578;11.012;2022-10-04T05:56:29;9.8;;;6.8;;
13057;SDS011;6595;49.578;11.012;2022-10-04T05:58:28;9.3;;;6.5;;
13057;SDS011;6595;49.578;11.012;2022-10-04T06:00:24;9.3;;;6.5;;
13057;SDS011;6595;49.578;11.012;2022-10-04T06:02:27;10.4;;;6.5;;
13057;SDS011;6595;49.578;11.012;2022-10-04T06:04:26;9.5;;;6.8;;
13057;SDS011;6595;49.578;11.012;2022-10-04T06:06:26;9.9;;;6.9;;
13057;SDS011;6595;49.578;11.012;2022-10-04T06:08:26;9.0;;;6.7;;
13057;SDS011;6595;49.578;11.012;2022-10-04T06:10:27;9.0;;;6.7;;
13057;SDS011;6595;49.578;11.012;2022-10-04T06:12:27;9.6;;;6.8;;
13057;SDS011;6595;49.578;11.012;2022-10-04T06:14:28;8.0;;;6.9;;
13057;SDS011;6595;49.578;11.012;2022-10-04T06:16:25;9.7;;;6.8;;
13057;SDS011;6595;49.578;11.012;2022-10-04T06:18:28;8.2;;;6.7;;
13057;SDS011;6595;49.578;11.012;2022-10-04T06:20:29;8.2;;;6.7;;
13057;SDS011;6595;49.578;11.012;2022-10-04T06:22:24;10.0;;;7.2;;
13057;SDS011;6595;49.578;11.012;2022-10-04T06:24:24;9.1;;;6.3;;
13057;SDS011;6595;49.578;11.012;2022-10-04T06:26:24;9.8;;;7.4;;
13057;SDS011;6595;49.578;11.012;2022-10-04T06:28:24;9.4;;;7.1;;
13057;SDS011;6595;49.578;11.012;2022-10-04T06:30:23;9.4;;;7.1;;
13057;SDS011;6595;49.578;11.012;2022-10-04T06:32:28;9.3;;;6.5;;
13057;SDS011;6595;49.578;11.012;2022-10-04T06:34:28;8.3;;;6.8;;
13057;SDS011;6595;49.578;11.012;2022-10-04T06:36:30;10.0;;;7.0;;
13057;SDS011;6595;49.578;11.012;2022-10-04T06:38:27;10.0;;;7.0;;
13057;SDS011;6595;49.578;11.012;2022-10-04T06:40:28;9.2;;;7.2;;
13057;SDS011;6595;49.578;11.012;2022-10-04T06:42:29;8.7;;;6.7;;
13057;SDS011;6595;49.578;11.012;2022-10-04T06:44:27;10.9;;;7.7;;
13057;SDS011;6595;49.578;11.012;2022-10-04T06:46:25;7.3;;;6.5;;
13057;SDS011;6595;49.578;11.012;2022-10-04T06:48:27;7.3;;;6.5;;
13057;SDS011;6595;49.578;11.012;2022-10-04T06:50:24;6.7;;;6.0;;
13057;SDS011;6595;49.578;11.012;2022-10-04T06:52:25;7.6;;;6.5;;
13057;SDS011;6595;49.578;11.012;2022-10-04T06:54:28;6.8;;;6.1;;
13057;SDS011;6595;49.578;11.012;2022-10-04T06:56:26;7.4;;;5.7;;
13057;SDS011;6595;49.578;11.012;2022-10-04T06:58:28;7.4;;;5.7;;
13057;SDS011;6595;49.578;11.012;2022-10-04T07:00:24;6.6;;;6.0;;
13057;SDS011;6595;49.578;11.012;2022-10-04T07:02:24;7.3;;;5.7;;
13057;SDS011;6595;49.578;11.012;2022-10-04T07:04:27;6.8;;;5.5;;
13057;SDS011;6595;49.578;11.012;2022-10-04T07:06:25;6.8;;;5.5;;
13057;SDS011;6595;49.578;11.012;2022-10-04T07:08:26;6.5;;;5.7;;
13057;SDS011;6595;49.578;11.012;2022-10-04T07:10:25;7.1;;;5.8;;
13057;SDS011;6595;49.578;11.012;2022-10-04T07:12:24;6.2;;;5.5;;
13057;SDS011;6595;49.578;11.012;2022-10-04T07:14:24;9.1;;;6.5;;
13057;SDS011;6595;49.578;11.012;2022-10-04T07:16:26;9.1;;;6.5;;
13057;SDS011;6595;49.578;11.012;2022-10-04T07:18:24;7.5;;;6.0;;
13057;SDS011;6595;49.578;11.012;2022-10-04T07:20:24;6.3;;;5.3;;
13057;SDS011;6595;49.578;11.012;2022-10-04T07:22:25;7.3;;;6.4;;
13057;SDS011;6595;49.578;11.012;2022-10-04T07:24:24;5.9;;;5.4;;
13057;SDS011;6595;49.578;11.012;2022-10-04T07:26:25;5.9;;;5.4;;
13057;SDS011;6595;49.578;11.012;2022-10-04T07:28:24;6.7;;;5.1;;
13057;SDS011;6595;49.578;11.012;2022-10-04T07:30:24;7.2;;;5.0;;
13057;SDS011;6595;49.578;11.012;2022-10-04T07:32:24;5.9;;;4.9;;
13057;SDS011;6595;49.578;11.012;2022-10-04T07:34:24;5.9;;;4.9;;
13057;SDS011;6595;49.578;11.012;2022-10-04T07:36:24;5.6;;;5.0;;
13057;SDS011;6595;49.578;11.012;2022-10-04T07:38:25;6.6;;;5.4;;
13057;SDS011;6595;49.578;11.012;2022-10-04T07:40:23;6.9;;;5.5;;
13057;SDS011;6595;49.578;11.012;2022-10-04T07:42:25;6.6;;;5.3;;
13057;SDS011;6595;49.578;11.012;2022-10-04T07:44:28;6.6;;;5.3;;
13057;SDS011;6595;49.578;11.012;2022-10-04T07:46:34;6.8;;;5.0;;
13057;SDS011;6595;49.578;11.012;2022-10-04T07:48:23;7.5;;;5.4;;
13057;SDS011;6595;49.578;11.012;2022-10-04T07:50:24;5.7;;;5.1;;
13057;SDS011;6595;49.578;11.012;2022-10-04T07:52:27;5.7;;;5.1;;
13057;SDS011;6595;49.578;11.012;2022-10-04T07:54:25;6.6;;;5.2;;
13057;SDS011;6595;49.578;11.012;2022-10-04T07:56:25;6.6;;;5.2;;
13057;SDS011;6595;49.578;11.012;2022-10-04T07:58:29;9.3;;;5.0;;
13057;SDS011;6595;49.578;11.012;2022-10-04T08:00:24;5.7;;;5.1;;
13057;SDS011;6595;49.578;11.012;2022-10-04T08:02:26;6.2;;;5.2;;
13057;SDS011;6595;49.578;11.012;2022-10-04T08:04:26;6.7;;;4.9;;
13057;SDS011;6595;49.578;11.012;2022-10-04T08:06:28;6.7;;;4.9;;
13057;SDS011;6595;49.578;11.012;2022-10-04T08:08:28;5.4;;;4.9;;
13057;SDS011;6595;49.578;11.012;2022-10-04T08:10:24;7.0;;;5.5;;
13057;SDS011;6595;49.578;11.012;2022-10-04T08:12:24;7.0;;;5.5;;
13057;SDS011;6595;49.578;11.012;2022-10-04T08:14:26;6.7;;;5.3;;
13057;SDS011;6595;49.578;11.012;2022-10-04T08:16:28;6.7;;;5.2;;
13057;SDS011;6595;49.578;11.012;2022-10-04T08:18:26;7.2;;;5.1;;
13057;SDS011;6595;49.578;11.012;2022-10-04T08:20:31;6.0;;;5.4;;
13057;SDS011;6595;49.578;11.012;2022-10-04T08:22:27;6.2;;;5.0;;
13057;SDS011;6595;49.578;11.012;2022-10-04T08:24:24;6.2;;;5.0;;
13057;SDS011;6595;49.578;11.012;2022-10-04T08:26:27;5.9;;;5.3;;
13057;SDS011;6595;49.578;11.012;2022-10-04T08:28:27;6.7;;;5.1;;
13057;SDS011;6595;49.578;11.012;2022-10-04T08:30:23;5.7;;;5.2;;
13057;SDS011;6595;49.578;11.012;2022-10-04T08:32:27;5.7;;;5.2;;
13057;SDS011;6595;49.578;11.012;2022-10-04T08:34:27;8.2;;;5.4;;
13057;SDS011;6595;49.578;11.012;2022-10-04T08:36:27;6.2;;;5.1;;
13057;SDS011;6595;49.578;11.012;2022-10-04T08:38:26;6.6;;;5.1;;
13057;SDS011;6595;49.578;11.012;2022-10-04T08:40:35;5.6;;;5.0;;
13057;SDS011;6595;49.578;11.012;2022-10-04T08:42:28;6.1;;;4.9;;
13057;SDS011;6595;49.578;11.012;2022-10-04T08:46:31;6.8;;;5.3;;
13057;SDS011;6595;49.578;11.012;2022-10-04T08:48:38;7.0;;;5.6;;
13057;SDS011;6595;49.578;11.012;2022-10-04T08:50:30;6.0;;;5.2;;
13057;SDS011;6595;49.578;11.012;2022-10-04T08:52:28;8.3;;;5.2;;
13057;SDS011;6595;49.578;11.012;2022-10-04T08:56:35;6.7;;;5.0;;
13057;SDS011;6595;49.578;11.012;2022-10-04T08:58:28;7.4;;;5.1;;
13057;SDS011;6595;49.578;11.012;2022-10-04T09:00:25;5.4;;;4.8;;
13057;SDS011;6595;49.578;11.012;2022-10-04T09:02:32;6.5;;;5.1;;
13057;SDS011;6595;49.578;11.012;2022-10-04T09:04:38;6.5;;;5.1;;
13057;SDS011;6595;49.578;11.012;2022-10-04T09:06:26;6.4;;;5.0;;
13057;SDS011;6595;49.578;11.012;2022-10-04T09:10:30;7.3;;;4.8;;
13057;SDS011;6595;49.578;11.012;2022-10-04T09:12:30;7.3;;;4.8;;
13057;SDS011;6595;49.578;11.012;2022-10-04T09:14:28;8.7;;;5.2;;
13057;SDS011;6595;49.578;11.012;2022-10-04T09:16:24;6.9;;;5.3;;
13057;SDS011;6595;49.578;11.012;2022-10-04T09:20:27;5.7;;;5.1;;
13057;SDS011;6595;49.578;11.012;2022-10-04T09:22:29;5.7;;;5.1;;
13057;SDS011;6595;49.578;11.012;2022-10-04T09:24:36;6.7;;;5.0;;
13057;SDS011;6595;49.578;11.012;2022-10-04T09:26:25;7.2;;;4.7;;
13057;SDS011;6595;49.578;11.012;2022-10-04T09:28:33;9.1;;;5.4;;
13057;SDS011;6595;49.578;11.012;2022-10-04T09:30:25;14.0;;;5.4;;
13057;SDS011;6595;49.578;11.012;2022-10-04T09:32:29;14.0;;;5.4;;
13057;SDS011;6595;49.578;11.012;2022-10-04T09:34:27;10.0;;;5.2;;
13057;SDS011;6595;49.578;11.012;2022-10-04T09:36:27;9.3;;;5.1;;
13057;SDS011;6595;49.578;11.012;2022-10-04T09:40:34;7.6;;;5.0;;
13057;SDS011;6595;49.578;11.012;2022-10-04T09:42:35;6.9;;;4.7;;
13057;SDS011;6595;49.578;11.012;2022-10-04T09:44:29;7.8;;;5.1;;
13057;SDS011;6595;49.578;11.012;2022-10-04T09:46:27;8.0;;;5.0;;
13057;SDS011;6595;49.578;11.012;2022-10-04T09:48:24;7.3;;;4.9;;
13057;SDS011;6595;49.578;11.012;2022-10-04T09:50:27;7.5;;;5.2;;
13057;SDS011;6595;49.578;11.012;2022-10-04T09:52:28;7.5;;;5.2;;
13057;SDS011;6595;49.578;11.012;2022-10-04T09:54:33;8.2;;;5.0;;
13057;SDS011;6595;49.578;11.012;2022-10-04T09:58:29;10.2;;;5.2;;
13057;SDS011;6595;49.578;11.012;2022-10-04T10:00:24;8.5;;;5.1;;
13057;SDS011;6595;49.578;11.012;2022-10-04T10:02:35;10.7;;;5.6;;
13057;SDS011;6595;49.578;11.012;2022-10-04T10:04:28;6.9;;;5.3;;
13057;SDS011;6595;49.578;11.012;2022-10-04T10:08:24;8.0;;;5.0;;
13057;SDS011;6595;49.578;11.012;2022-10-04T10:10:25;8.0;;;5.0;;
13057;SDS011;6595;49.578;11.012;2022-10-04T10:12:28;6.9;;;5.1;;
13057;SDS011;6595;49.578;11.012;2022-10-04T10:14:31;6.1;;;4.9;;
13057;SDS011;6595;49.578;11.012;2022-10-04T10:16:26;6.1;;;4.9;;
13057;SDS011;6595;49.578;11.012;2022-10-04T10:18:24;6.4;;;5.1;;
13057;SDS011;6595;49.578;11.012;2022-10-04T10:20:28;6.4;;;5.1;;
13057;SDS011;6595;49.578;11.012;2022-10-04T10:22:26;5.1;;;4.6;;
13057;SDS011;6595;49.578;11.012;2022-10-04T10:24:27;6.2;;;4.9;;
13057;SDS011;6595;49.578;11.012;2022-10-04T10:26:28;6.2;;;4.9;;
13057;SDS011;6595;49.578;11.012;2022-10-04T10:28:28;5.6;;;4.4;;
13057;SDS011;6595;49.578;11.012;2022-10-04T10:30:24;5.6;;;4.4;;
13057;SDS011;6595;49.578;11.012;2022-10-04T10:32:30;5.1;;;4.3;;
13057;SDS011;6595;49.578;11.012;2022-10-04T10:34:30;6.3;;;3.8;;
13057;SDS011;6595;49.578;11.012;2022-10-04T10:36:28;4.3;;;3.4;;
13057;SDS011;6595;49.578;11.012;2022-10-04T10:38:28;4.5;;;3.5;;
13057;SDS011;6595;49.578;11.012;2022-10-04T10:40:30;4.5;;;3.5;;
13057;SDS011;6595;49.578;11.012;2022-10-04T10:42:27;7.2;;;3.7;;
13057;SDS011;6595;49.578;11.012;2022-10-04T10:44:26;4.7;;;3.7;;
13057;SDS011;6595;49.578;11.012;2022-10-04T10:46:26;4.7;;;3.7;;
13057;SDS011;6595;49.578;11.012;2022-10-04T10:48:28;5.8;;;3.2;;
13057;SDS011;6595;49.578;11.012;2022-10-04T10:50:27;5.8;;;3.2;;
13057;SDS011;6595;49.578;11.012;2022-10-04T10:54:28;3.4;;;2.9;;
13057;SDS011;6595;49.578;11.012;2022-10-04T10:56:33;5.4;;;2.6;;
13057;SDS011;6595;49.578;11.012;2022-10-04T10:58:33;5.4;;;2.6;;
13057;SDS011;6595;49.578;11.012;2022-10-04T11:00:24;8.4;;;3.2;;
13057;SDS011;6595;49.578;11.012;2022-10-04T11:06:29;2.4;;;2.1;;
13057;SDS011;6595;49.578;11.012;2022-10-04T11:08:33;3.8;;;2.4;;
13057;SDS011;6595;49.578;11.012;2022-10-04T11:10:30;3.9;;;2.5;;
13057;SDS011;6595;49.578;11.012;2022-10-04T11:12:32;3.7;;;2.1;;
13057;SDS011;6595;49.578;11.012;2022-10-04T11:14:37;4.3;;;2.0;;
13057;SDS011;6595;49.578;11.012;2022-10-04T11:16:28;3.9;;;2.2;;
13057;SDS011;6595;49.578;11.012;2022-10-04T11:26:30;2.7;;;1.7;;
13057;SDS011;6595;49.578;11.012;2022-10-04T11:28:26;2.7;;;1.7;;
13057;SDS011;6595;49.578;11.012;2022-10-04T11:30:24;1.7;;;1.6;;
13057;SDS011;6595;49.578;11.012;2022-10-04T11:32:30;3.1;;;2.0;;
13057;SDS011;6595;49.578;11.012;2022-10-04T11:36:29;4.5;;;1.8;;
13057;SDS011;6595;49.578;11.012;2022-10-04T11:38:26;3.6;;;1.8;;
13057;SDS011;6595;49.578;11.012;2022-10-04T11:40:28;2.6;;;1.9;;
13057;SDS011;6595;49.578;11.012;2022-10-04T11:42:27;1.9;;;1.7;;
13057;SDS011;6595;49.578;11.012;2022-10-04T11:46:27;2.9;;;1.7;;
13057;SDS011;6595;49.578;11.012;2022-10-04T11:48:27;3.8;;;1.9;;
13057;SDS011;6595;49.578;11.012;2022-10-04T11:52:28;2.1;;;1.7;;
13057;SDS011;6595;49.578;11.012;2022-10-04T11:54:28;2.1;;;1.7;;
13057;SDS011;6595;49.578;11.012;2022-10-04T11:58:26;3.1;;;1.9;;
13057;SDS011;6595;49.578;11.012;2022-10-04T12:00:25;2.9;;;1.8;;
13057;SDS011;6595;49.578;11.012;2022-10-04T12:02:28;2.6;;;1.6;;
13057;SDS011;6595;49.578;11.012;2022-10-04T12:04:30;3.0;;;1.7;;
13057;SDS011;6595;49.578;11.012;2022-10-04T12:06:28;3.0;;;1.7;;
13057;SDS011;6595;49.578;11.012;2022-10-04T12:08:27;2.8;;;1.9;;
13057;SDS011;6595;49.578;11.012;2022-10-04T12:10:26;1.6;;;1.5;;
13057;SDS011;6595;49.578;11.012;2022-10-04T12:12:30;3.4;;;1.5;;
13057;SDS011;6595;49.578;11.012;2022-10-04T12:14:27;2.0;;;1.6;;
13057;SDS011;6595;49.578;11.012;2022-10-04T12:16:35;2.0;;;1.6;;
13057;SDS011;6595;49.578;11.012;2022-10-04T12:18:27;3.8;;;1.6;;
13057;SDS011;6595;49.578;11.012;2022-10-04T12:20:35;2.4;;;1.7;;
13057;SDS011;6595;49.578;11.012;2022-10-04T12:22:28;1.6;;;1.4;;
13057;SDS011;6595;49.578;11.012;2022-10-04T12:24:27;3.1;;;1.6;;
13057;SDS011;6595;49.578;11.012;2022-10-04T12:26:28;3.1;;;1.6;;
13057;SDS011;6595;49.578;11.012;2022-10-04T12:28:30;3.5;;;1.8;;
13057;SDS011;6595;49.578;11.012;2022-10-04T12:30:24;2.0;;;1.5;;
13057;SDS011;6595;49.578;11.012;2022-10-04T12:32:25;2.9;;;1.6;;
13057;SDS011;6595;49.578;11.012;2022-10-04T12:34:24;1.6;;;1.5;;
13057;SDS011;6595;49.578;11.012;2022-10-04T12:36:28;1.6;;;1.5;;
13057;SDS011;6595;49.578;11.012;2022-10-04T12:38:31;1.7;;;1.5;;
13057;SDS011;6595;49.578;11.012;2022-10-04T12:40:26;1.9;;;1.7;;
13057;SDS011;6595;49.578;11.012;2022-10-04T12:42:27;4.7;;;1.9;;
13057;SDS011;6595;49.578;11.012;2022-10-04T12:44:27;4.7;;;1.9;;
13057;SDS011;6595;49.578;11.012;2022-10-04T12:46:26;2.9;;;1.6;;
13057;SDS011;6595;49.578;11.012;2022-10-04T12:48:26;2.8;;;1.5;;
13057;SDS011;6595;49.578;11.012;2022-10-04T12:50:25;2.7;;;1.7;;
13057;SDS011;6595;49.578;11.012;2022-10-04T12:52:23;3.4;;;1.8;;
13057;SDS011;6595;49.578;11.012;2022-10-04T12:54:29;3.4;;;1.8;;
13057;SDS011;6595;49.578;11.012;2022-10-04T12:56:30;4.3;;;1.9;;
13057;SDS011;6595;49.578;11.012;2022-10-04T12:58:25;2.1;;;1.6;;
13057;SDS011;6595;49.578;11.012;2022-10-04T13:00:24;1.6;;;1.5;;
13057;SDS011;6595;49.578;11.012;2022-10-04T13:02:27;2.4;;;1.6;;
13057;SDS011;6595;49.578;11.012;2022-10-04T13:04:31;2.4;;;1.6;;
13057;SDS011;6595;49.578;11.012;2022-10-04T13:06:25;2.1;;;1.5;;
13057;SDS011;6595;49.578;11.012;2022-10-04T13:08:26;2.5;;;1.6;;
13057;SDS011;6595;49.578;11.012;2022-10-04T13:10:28;2.2;;;1.5;;
13057;SDS011;6595;49.578;11.012;2022-10-04T13:12:26;2.8;;;1.9;;
13057;SDS011;6595;49.578;11.012;2022-10-04T13:14:27;2.8;;;1.9;;